Time;durP1;ratioP1;P1;durP2;ratioP2;P2;SDS_P1;SDS_P2;PMS_P1;PMS_P2;Temp;Humidity;BMP_temperature;BMP_pressure;BME280_temperature;BME280_humidity;BME280_pressure;Samples;Min_cycle;Max_cycle;Signal;HPM_P1;HPM_P2
2024/03/11 00:06:41;;;;;;;24.60;14.30;;;;;;;7.22;90.98;97619.06;436621;1247;97880;-40
2024/03/11 00:16:48;;;;;;;19.90;12.40;;;;;;;7.23;91.02;97612.48;436424;1248;108355;-40
2024/03/11 00:26:56;;;;;;;16.30;10.20;;;;;;;7.24;90.95;97607.16;436554;1247;97738;-40
2024/03/11 00:37:00;;;;;;;18.00;11.20;;;;;;;7.25;91.15;97606.14;436426;1261;110805;-41
2024/03/11 00:47:06;;;;;;;19.30;13.20;;;;;;;7.23;91.69;97600.02;436514;1251;108371;-39
2024/03/11 01:17:37;;;;;;;19.80;12.10;;;;;;;7.27;92.22;97570.41;436508;1250;97564;-40
2024/03/11 01:27:45;;;;;;;26.40;13.70;;;;;;;7.29;92.41;97556.15;436548;1250;109852;-38
2024/03/11 01:47:58;;;;;;;22.90;12.30;;;;;;;7.29;92.31;97539.27;436572;1252;97854;-40
2024/03/11 01:58:04;;;;;;;27.70;14.40;;;;;;;7.27;92.14;97539.75;436620;1247;108419;-39
2024/03/11 02:08:12;;;;;;;23.50;13.30;;;;;;;7.20;91.99;97536.05;436645;1260;97963;-40
2024/03/11 02:18:20;;;;;;;19.90;12.60;;;;;;;7.21;92.27;97529.08;436487;1250;109010;-39
2024/03/11 02:28:27;;;;;;;20.60;12.50;;;;;;;7.22;92.24;97520.89;436570;1251;106736;-38
2024/03/11 02:38:34;;;;;;;16.40;10.70;;;;;;;7.24;92.21;97527.61;437015;1244;98323;-40
2024/03/11 02:48:40;;;;;;;17.30;10.90;;;;;;;7.26;92.52;97520.02;435888;1255;107479;-40
2024/03/11 02:58:48;;;;;;;22.80;12.40;;;;;;;7.28;92.43;97517.52;436020;1248;97462;-40
2024/03/11 03:08:55;;;;;;;21.20;12.70;;;;;;;7.28;92.46;97533.21;435920;1260;111160;-40
2024/03/11 03:19:02;;;;;;;16.00;11.20;;;;;;;7.30;92.49;97526.73;436069;1261;108310;-39
2024/03/11 03:29:11;;;;;;;18.90;11.70;;;;;;;7.31;92.69;97521.66;436170;1254;98115;-39
2024/03/11 03:39:18;;;;;;;25.00;13.70;;;;;;;7.32;92.74;97507.16;435691;1253;108268;-39
2024/03/11 03:49:25;;;;;;;28.20;14.50;;;;;;;7.35;93.02;97502.81;435983;1252;98020;-40
2024/03/11 03:59:33;;;;;;;15.10;10.90;;;;;;;7.36;93.00;97505.71;435898;1255;109773;-39
2024/03/11 04:09:40;;;;;;;16.40;10.70;;;;;;;7.37;92.96;97529.66;435911;1253;106999;-40
2024/03/11 04:19:48;;;;;;;11.30;8.90;;;;;;;7.41;93.15;97556.95;435998;1248;97861;-39
2024/03/11 04:29:55;;;;;;;18.70;11.30;;;;;;;7.44;92.97;97560.64;435612;1255;553456;-40
2024/03/11 04:40:06;;;;;;;15.40;11.30;;;;;;;7.42;92.80;97561.56;435871;1254;97897;-40
2024/03/11 04:50:13;;;;;;;22.90;13.80;;;;;;;7.41;92.79;97563.58;436009;1248;110488;-40
2024/03/11 05:10:27;;;;;;;25.20;14.60;;;;;;;7.37;92.68;97577.09;435994;1254;97259;-39
2024/03/11 05:20:34;;;;;;;20.00;13.10;;;;;;;7.38;92.84;97590.48;436042;1252;108357;-39
2024/03/11 05:30:40;;;;;;;21.50;13.50;;;;;;;7.36;92.92;97602.80;435986;1252;96728;-40
2024/03/11 06:01:01;;;;;;;19.00;13.50;;;;;;;7.38;93.23;97623.61;436141;1248;97961;-39
2024/03/11 06:11:10;;;;;;;20.40;14.50;;;;;;;7.39;93.57;97629.57;436027;1248;107737;-40
2024/03/11 06:21:17;;;;;;;18.60;13.30;;;;;;;7.45;93.62;97627.73;436251;1248;97862;-41
2024/03/11 06:31:23;;;;;;;21.10;15.10;;;;;;;7.44;93.97;97625.14;436006;1253;109651;-39
2024/03/11 06:41:31;;;;;;;26.70;17.10;;;;;;;7.40;94.61;97627.65;435890;1259;105686;-38
2024/03/11 06:51:42;;;;;;;23.30;14.70;;;;;;;7.37;95.28;97636.60;435945;1252;97890;-39
2024/03/11 07:01:48;;;;;;;27.20;17.70;;;;;;;7.39;95.61;97639.77;435824;1252;107328;-39
2024/03/11 07:22:01;;;;;;;32.10;18.80;;;;;;;7.51;96.21;97655.14;435949;1252;110211;-39
2024/03/11 07:32:11;;;;;;;24.10;17.90;;;;;;;7.65;96.17;97651.58;435731;1252;107767;-39
2024/03/11 07:42:18;;;;;;;18.00;15.20;;;;;;;7.80;96.23;97647.27;436029;1252;97876;-39
2024/03/11 07:52:25;;;;;;;21.40;15.50;;;;;;;7.84;96.48;97649.27;435993;1252;107098;-39
2024/03/11 08:12:38;;;;;;;22.10;14.90;;;;;;;7.98;96.80;97666.86;435973;1248;109562;-39
2024/03/11 08:32:53;;;;;;;20.20;15.40;;;;;;;8.41;96.68;97657.83;435928;1252;97945;-39
2024/03/11 08:43:00;;;;;;;19.80;14.30;;;;;;;8.48;96.74;97657.83;435966;1252;109657;-39
2024/03/11 09:03:15;;;;;;;30.00;19.50;;;;;;;8.65;96.84;97675.81;435766;1252;109994;-40
2024/03/11 09:13:26;;;;;;;25.20;18.00;;;;;;;8.69;96.61;97690.77;435772;1252;108191;-39
2024/03/11 09:23:33;;;;;;;21.20;14.70;;;;;;;8.84;96.49;97695.87;435829;1252;97233;-39
2024/03/11 09:33:41;;;;;;;18.30;12.30;;;;;;;9.17;96.39;97700.19;435793;1252;109214;-40
2024/03/11 09:53:58;;;;;;;21.10;14.70;;;;;;;9.61;95.94;97699.48;435741;1252;109829;-38
2024/03/11 10:24:30;;;;;;;17.50;13.00;;;;;;;10.46;94.67;97685.35;435668;1252;109543;-39
2024/03/11 10:44:59;;;;;;;22.50;15.10;;;;;;;11.32;94.58;97684.17;435834;1248;97841;-41
2024/03/11 10:55:07;;;;;;;17.70;11.60;;;;;;;11.77;93.17;97683.44;435615;1252;108747;-41
2024/03/11 11:05:24;;;;;;;18.40;12.60;;;;;;;11.93;92.25;97682.64;435778;1249;96627;-39
2024/03/11 11:25:40;;;;;;;23.80;14.80;;;;;;;12.08;91.18;97680.19;436065;1252;107645;-40
2024/03/11 11:35:48;;;;;;;24.60;16.00;;;;;;;12.25;90.70;97671.58;435842;1247;96647;-40
2024/03/11 11:45:55;;;;;;;19.00;14.90;;;;;;;12.05;89.65;97673.45;435806;1248;110793;-40
2024/03/11 11:56:05;;;;;;;22.00;16.60;;;;;;;12.00;89.12;97672.70;435642;1252;107177;-40
2024/03/11 12:16:27;;;;;;;25.00;16.30;;;;;;;12.67;88.77;97669.58;435695;1252;110067;-40
2024/03/11 12:46:53;;;;;;;25.40;19.10;;;;;;;12.17;86.08;97686.98;435765;1252;107413;-38
2024/03/11 13:07:12;;;;;;;30.70;21.70;;;;;;;11.28;86.16;97697.34;435725;1271;110444;-39
2024/03/11 13:17:22;;;;;;;34.50;22.70;;;;;;;11.05;86.56;97700.11;435480;1247;107296;-39
2024/03/11 13:27:30;;;;;;;35.10;21.70;;;;;;;10.98;87.32;97697.11;435977;1252;97870;-40
2024/03/11 13:37:36;;;;;;;27.20;20.80;;;;;;;11.03;87.08;97706.40;436395;1252;110978;-40
2024/03/11 13:57:48;;;;;;;32.60;22.60;;;;;;;10.79;87.35;97714.64;436142;1248;96626;-39
2024/03/11 14:07:56;;;;;;;37.80;21.50;;;;;;;10.68;87.31;97715.03;435713;1252;107393;-40
2024/03/11 14:18:04;;;;;;;36.80;23.50;;;;;;;10.54;87.51;97720.04;435687;1250;97913;-39
2024/03/11 14:28:11;;;;;;;43.70;25.80;;;;;;;10.28;87.83;97715.89;435852;1250;109785;-39
2024/03/11 14:38:19;;;;;;;45.00;25.50;;;;;;;10.18;88.11;97721.41;435688;1252;107557;-38
2024/03/11 14:48:28;;;;;;;53.80;28.80;;;;;;;10.12;88.20;97715.21;435687;1252;97918;-40
2024/03/11 14:58:35;;;;;;;60.80;33.30;;;;;;;10.07;88.50;97717.55;435658;1247;107921;-41
2024/03/11 15:08:44;;;;;;;60.10;31.70;;;;;;;9.97;88.50;97713.22;435737;1252;97477;-39
2024/03/11 15:28:57;;;;;;;52.50;31.00;;;;;;;9.76;88.92;97725.02;436388;1252;106649;-41
2024/03/11 15:49:11;;;;;;;57.80;28.50;;;;;;;9.39;89.10;97732.16;436677;1263;109449;-40
2024/03/11 15:59:18;;;;;;;44.90;27.50;;;;;;;9.24;89.54;97733.48;436220;1251;109368;-40
2024/03/11 16:19:52;;;;;;;50.60;30.40;;;;;;;8.93;90.05;97742.13;435715;1252;108696;-40
2024/03/11 16:29:59;;;;;;;55.90;34.90;;;;;;;8.74;90.30;97749.00;435323;1247;602848;-39
2024/03/11 16:40:11;;;;;;;59.50;36.30;;;;;;;8.52;90.45;97757.34;435689;1253;110052;-38
2024/03/11 16:50:20;;;;;;;53.50;33.30;;;;;;;8.37;90.66;97756.86;435585;1252;107445;-39
2024/03/11 17:10:35;;;;;;;71.70;41.20;;;;;;;8.16;91.26;97768.46;435437;1247;107797;-39
2024/03/11 17:20:44;;;;;;;58.60;35.00;;;;;;;8.11;91.52;97776.91;435506;1248;99358;-38
2024/03/11 17:30:52;;;;;;;53.20;32.90;;;;;;;8.07;91.83;97780.16;435661;1253;110152;-39
2024/03/11 17:41:00;;;;;;;55.70;34.30;;;;;;;8.03;91.99;97788.21;435640;1252;107912;-40
2024/03/11 17:51:08;;;;;;;69.90;39.70;;;;;;;7.96;92.24;97787.77;435643;1252;99208;-40
2024/03/11 18:01:15;;;;;;;55.20;34.10;;;;;;;7.94;92.30;97791.63;435795;1261;107931;-39
2024/03/11 18:11:25;;;;;;;63.80;38.60;;;;;;;7.89;92.54;97793.31;435686;1248;99336;-39
2024/03/11 18:21:33;;;;;;;55.00;33.20;;;;;;;7.86;92.43;97797.98;435646;1263;111512;-40
2024/03/11 18:51:57;;;;;;;48.10;30.30;;;;;;;7.80;92.54;97808.95;435636;1251;108732;-40
2024/03/11 19:12:11;;;;;;;55.30;33.60;;;;;;;7.60;92.88;97821.23;436039;1253;112447;-40
2024/03/11 19:22:19;;;;;;;57.40;33.60;;;;;;;7.58;92.96;97819.52;435590;1248;107247;-41
2024/03/11 19:32:26;;;;;;;62.80;37.40;;;;;;;7.58;93.18;97823.03;435506;1261;99537;-41
2024/03/11 19:42:36;;;;;;;55.10;35.30;;;;;;;7.57;93.20;97826.85;435594;1252;108149;-41
2024/03/11 19:53:20;;;;;;;54.20;33.70;;;;;;;7.53;93.32;97837.00;435810;1253;99253;-40
2024/03/11 20:03:51;;;;;;;69.90;41.90;;;;;;;7.48;93.61;97837.47;435639;1252;110455;-40
2024/03/11 20:14:16;;;;;;;68.10;40.60;;;;;;;7.42;93.60;97839.19;435686;1261;106603;-40
2024/03/11 20:34:48;;;;;;;63.10;36.30;;;;;;;7.33;93.96;97843.25;436096;1248;107107;-39
2024/03/11 20:44:55;;;;;;;62.90;36.20;;;;;;;7.27;94.15;97854.52;435983;1253;99214;-40
2024/03/11 20:55:02;;;;;;;77.30;44.10;;;;;;;7.22;94.34;97857.34;435787;1261;111684;-40
2024/03/11 21:05:11;;;;;;;55.40;32.90;;;;;;;7.20;94.51;97861.70;435873;1252;106268;-40
2024/03/11 21:15:18;;;;;;;57.50;34.10;;;;;;;7.16;94.77;97858.80;435810;1252;99253;-40
2024/03/11 21:35:31;;;;;;;54.30;30.60;;;;;;;7.12;94.99;97851.64;436434;1254;101321;-38
2024/03/11 21:45:38;;;;;;;50.70;30.20;;;;;;;7.08;95.25;97849.91;436250;1261;110562;-39
2024/03/11 21:55:46;;;;;;;45.20;28.00;;;;;;;7.02;95.38;97849.02;435939;1248;107732;-40
2024/03/11 22:05:54;;;;;;;54.50;31.00;;;;;;;6.93;95.46;97859.46;436040;1248;101513;-39
2024/03/11 22:16:02;;;;;;;58.10;31.30;;;;;;;6.90;95.93;97865.02;435804;1248;109319;-38
2024/03/11 22:26:09;;;;;;;61.50;33.20;;;;;;;6.77;96.01;97854.59;435885;1248;99193;-39
2024/03/11 22:36:17;;;;;;;50.90;30.70;;;;;;;6.67;96.48;97851.30;435922;1262;112288;-39
2024/03/11 22:56:31;;;;;;;56.10;32.50;;;;;;;6.67;96.56;97836.84;435968;1254;99234;-40
2024/03/11 23:06:56;;;;;;;55.50;31.40;;;;;;;6.66;96.70;97831.95;435937;1252;109376;-40
2024/03/11 23:17:04;;;;;;;59.60;33.80;;;;;;;6.59;96.80;97835.72;435957;1253;99852;-40
2024/03/11 23:27:12;;;;;;;56.50;31.40;;;;;;;6.52;97.29;97834.92;435869;1252;112901;-39
2024/03/11 23:37:21;;;;;;;55.70;30.00;;;;;;;6.50;97.27;97835.88;435810;1255;108248;-39
2024/03/11 23:47:28;;;;;;;54.80;28.70;;;;;;;6.52;97.31;97830.77;436010;1248;99246;-40
2024/03/11 23:57:34;;;;;;;50.50;27.90;;;;;;;6.47;97.51;97828.70;435821;1254;108356;-40
